搜索
查看: 3507|回復: 6

2011年02月14日,月掩井宿一(三份来自北京的观测报告)

 關閉 [複製鏈接]
發表於 2011-2-15 21:04:46 | 顯示全部樓層 |閱讀模式
本帖最後由 昴星团 於 2011-2-15 21:23 編輯

观测目标:月掩井宿一   观测日期2011年02月14日(GMT+8)
观测地:北京大学畅春园65号楼下
经纬度:116.297206°E 39.992795°N  海拔40米
观测地Geoid Height: -9.87 Meters(上述海拔数据未修正)
因无GPS,故坐标由谷歌地图查得,海拔是北京平均海拔。
观测者:鄙人、Zhang Shen

使用仪器:星特朗牛顿反射望远镜
          口径114毫米   焦距900毫米   
          WAT-120N(曝光速度1/25秒) + easyCAP视频采集卡 + Thinkpad SL410
          德式赤道仪手动跟踪

掩星时间(GMT+8)    * 现象  ** 人差       其它
23:52:18.28            1        E          月相:82%(+),预报见掩时间23:52:16
01:00:00               9        E          视频画面未见被掩星,目视可见

计时方法:windows media encoder 9录影,会声会影(Ulead VideoStudio 11)分析
天空状况:seeing较差,透明度较好,无云,微风。
北京首都机场气象例行观测报:
METAR ZBAA 141500Z 08001MPS 7000 SKC M08/M12 Q1030 NOSIG
METAR ZBAA 141530Z 12001MPS 6000 SKC M08/M12 Q1030 NOSIG
METAR ZBAA 141600Z 09001MPS 6000 SKC M09/M13 Q1030 NOSIG
METAR ZBAA 141630Z 13001MPS 5000 BR SKC M09/M13 Q1029 NOSIG
METAR ZBAA 141700Z VRB01MPS 5000 BR SKC M09/M13 Q1029 NOSIG


现象 1.暗面消失 2.暗面出现 3.光面消失 4.光面出现 5.星在本影消失 6.星在本影出现
     7.光度变暗 8.光度增强 9.无掩星现象 10.其它

人差  S 人差时间 / 秒已从观测中修正
      E 观测方法无人差数值
      N 人差时间未修正

原始预报:
       day  Time   P   Star  Sp  Mag  Mag    % Elon Sun  Moon   CA   PA  VA  AA Libration   A   B   RV   Cct durn R.A. (J2000)  Dec
y   m  d  h  m  s      No  D     v    r V  ill     Alt Alt Az   o    o   o   o   L    B   m/o m/o "/sec   o sec  h  m   s    o  m  s
11 Feb 14 15 52 16 D     976SM3  2.9  2.0v  82+ 130     50 257  79S 102  48 102 -7.8 +0.9 +1.2-1.4 .440    4 .03  6 22 57.6  22 30 49
11 Feb 14 17  0 30 R     976SM3  2.9  2.0v  82+ 130     37 270 -71N 291 235 290 -7.9 +1.1 +0.6-1.7 .488  176 .03  6 22 57.6  22 30 49

望远镜光轴偏,故恒星成像有彗差

望远镜光轴偏,故恒星成像有彗差

鄙人

鄙人

Zhang Shen同学

Zhang Shen同学
 樓主| 發表於 2011-2-15 21:13:14 | 顯示全部樓層
本帖最後由 昴星团 於 2011-2-15 21:22 編輯

观测目标:月掩μGem  观测日期:2011年2月14-15日(GMT+8)
观测者:Wu Xijun
观测地:北京农学院宿舍9号楼顶层
经纬度:东经116度18分38.63秒 海拔37米(未算楼高)
    北纬 40度05分26.63秒 
        观测地Geoid Height: -9.71 Meters(上述海拔数据未修正)
 
使用仪器:
Celestron PowerSeeker 114EQ 
口径114毫米 焦距900毫米 
目镜焦距20毫米 赤道仪手动跟踪

编号   时间(BJT)     * 现象  ** 人差   其它
1         /             1     /     不能准确计时
2     01:00:54.02        4        S     目镜倍数较小故有一定误差

计时方法:电脑秒表
天空状况:视宁度尚可,透明度较好,-9摄氏度,湿度73%,能见度5公里,无云,不定风一级。
 
现象 1.暗面消失 2.暗面出现 3.光面消失 4.光面出现 5.星在本影消失
     6.星在本影出现 7.光度变暗 8.光度增强 9.无掩星现象 10.其它

人差:S 人差时间 0.313 秒已从观测中修正
   E 观测方法无人差数值
   N 人差时间未修正

附言:记录时间与中国科学院国家授时中心校准,现象发生时环形山不甚清晰,本次观测主观可信度在50%以上。
 樓主| 發表於 2011-2-15 21:13:55 | 顯示全部樓層
本帖最後由 昴星团 於 2011-2-15 21:35 編輯

观测目标:月掩mu Gem  观测日期:2011年2月14日(GMT+8)
观测者:魏晓凡(Wei Xiaofan)      
观测地:中国传媒大学北校园35号楼
经纬度:东经116度32分58秒 高度33米
    北纬 39度54分45秒
观测地Geoid Height: -9.72 Meters(上述海拔数据未修正)

使用仪器:
双筒望远镜,倍率10倍,物镜口径60毫米。
 
掩星时间(GMT+8)  * 现象   ** 人差   其它
23时52分41.65秒    1      S     无
 
计时方法:视频,拍摄电子秒钟校时
天空状况:seeing较好,透明度较好。
 
现象 1.暗面消失 2.暗面出现 3.光面消失 4.光面出现 5.星在本影消失
     6.星在本影出现 7.光度变暗 8.光度增强 9.无掩星现象 10.其它

人差:S 人差时间 0.4 秒已从观测中修正
   E 观测方法无人差数值
   N 人差时间未修正

附言:被视频拍摄的电子秒钟系网页最新刷新的国家授时中心标准北京时间,被掩星在月光干扰下肉眼难见,但在双筒镜中非常清晰,现象发生时环形山清晰,本次观测主观可信度在60%以上。
發表於 2011-2-15 21:36:36 | 顯示全部樓層
香港密雲看不見掩星現象,有視頻片段可以用來分析嗎?
 樓主| 發表於 2011-2-15 22:13:05 | 顯示全部樓層
视频片段有是有,掩入现象的原片200多MB(wmv格式),稍晚一些时候我再将有效的视频部分截取出来,不过估计也有几十MB~100MB,不知如何给您?

掩出时的视频也有,但是无论我怎么处理(提高亮度、对比度等),都无法看见恒星的踪影,您是否需要?
 樓主| 發表於 2014-6-24 08:37:49 | 顯示全部樓層
本帖最後由 昴星团 於 2014-6-25 21:58 編輯

到今日我才有足够的软件将录像进行分析和截图。
可是没有对CCD进行标定,不能获得严格的光变曲线。

用Kmplayer将录像拆成单帧,再用Photoscape制作GIF动画:
anigif.gif

由于望远镜光轴歪了,所以星星不是点状的。


Photoshop截图,ImageJ测量绘图,Excel绘图:
光变.jpg
發表於 2014-6-25 05:01:20 | 顯示全部樓層
感謝您的觀測報告
您需要登錄後才可以回帖 登錄 | 申請討論區帳戶

本版積分規則

手機版|Archiver|香港天文學會  

GMT+8, 2019-9-20 10:00 , Processed in 0.245576 second(s), 124 queries , Redis On.

Powered by Discuz! X3.4

© 2001-2013 Design S!|平潭

快速回復 返回頂部 返回列表